sensor_id;sensor_type;location;lat;lon;timestamp;temperature;humidity
61374;DHT22;47242;48.158;-1.586;2023-03-25T05:31:07;9.70;80.10
61374;DHT22;47242;48.158;-1.586;2023-03-25T05:33:35;9.70;80.10
61374;DHT22;47242;48.158;-1.586;2023-03-25T05:36:03;9.70;80.10
61374;DHT22;47242;48.158;-1.586;2023-03-25T05:38:28;9.70;80.20
61374;DHT22;47242;48.158;-1.586;2023-03-25T05:40:54;9.60;80.30
61374;DHT22;47242;48.158;-1.586;2023-03-25T05:43:21;9.70;80.30
61374;DHT22;47242;48.158;-1.586;2023-03-25T05:45:47;9.70;80.40
61374;DHT22;47242;48.158;-1.586;2023-03-25T05:48:13;9.70;80.50
61374;DHT22;47242;48.158;-1.586;2023-03-25T05:50:38;9.70;80.50
61374;DHT22;47242;48.158;-1.586;2023-03-25T05:53:09;9.70;80.50
61374;DHT22;47242;48.158;-1.586;2023-03-25T05:55:35;9.60;80.70
61374;DHT22;47242;48.158;-1.586;2023-03-25T05:58:01;9.70;80.60
61374;DHT22;47242;48.158;-1.586;2023-03-25T06:00:26;9.70;80.40
61374;DHT22;47242;48.158;-1.586;2023-03-25T06:02:52;9.70;80.40
61374;DHT22;47242;48.158;-1.586;2023-03-25T06:05:19;9.70;80.30
61374;DHT22;47242;48.158;-1.586;2023-03-25T06:07:48;9.70;80.30
61374;DHT22;47242;48.158;-1.586;2023-03-25T06:10:15;9.70;80.50
61374;DHT22;47242;48.158;-1.586;2023-03-25T06:12:42;9.70;80.50
61374;DHT22;47242;48.158;-1.586;2023-03-25T06:15:10;9.70;80.70
61374;DHT22;47242;48.158;-1.586;2023-03-25T06:17:36;9.80;80.40
61374;DHT22;47242;48.158;-1.586;2023-03-25T06:20:09;9.80;80.40
61374;DHT22;47242;48.158;-1.586;2023-03-25T06:22:41;9.80;80.20
61374;DHT22;47242;48.158;-1.586;2023-03-25T06:25:08;9.80;80.40
61374;DHT22;47242;48.158;-1.586;2023-03-25T06:27:35;9.80;80.30
61374;DHT22;47242;48.158;-1.586;2023-03-25T06:30:06;9.90;80.00
61374;DHT22;47242;48.158;-1.586;2023-03-25T06:32:32;10.00;79.90
61374;DHT22;47242;48.158;-1.586;2023-03-25T06:34:58;10.00;79.70
61374;DHT22;47242;48.158;-1.586;2023-03-25T06:37:23;10.10;79.40
61374;DHT22;47242;48.158;-1.586;2023-03-25T06:39:51;10.10;79.30
61374;DHT22;47242;48.158;-1.586;2023-03-25T06:42:24;10.20;79.20
61374;DHT22;47242;48.158;-1.586;2023-03-25T06:44:50;10.20;78.90
61374;DHT22;47242;48.158;-1.586;2023-03-25T06:47:16;10.30;78.90
61374;DHT22;47242;48.158;-1.586;2023-03-25T06:49:41;10.30;78.70
61374;DHT22;47242;48.158;-1.586;2023-03-25T06:52:07;10.40;78.60
61374;DHT22;47242;48.158;-1.586;2023-03-25T06:54:32;10.40;78.40
61374;DHT22;47242;48.158;-1.586;2023-03-25T06:56:58;10.50;78.20
61374;DHT22;47242;48.158;-1.586;2023-03-25T06:59:24;10.60;78.00
61374;DHT22;47242;48.158;-1.586;2023-03-25T07:01:50;10.70;77.70
61374;DHT22;47242;48.158;-1.586;2023-03-25T07:04:15;10.70;77.50
61374;DHT22;47242;48.158;-1.586;2023-03-25T07:06:41;10.80;77.40
61374;DHT22;47242;48.158;-1.586;2023-03-25T07:09:07;10.80;77.10
61374;DHT22;47242;48.158;-1.586;2023-03-25T07:11:33;10.90;77.00
61374;DHT22;47242;48.158;-1.586;2023-03-25T07:13:59;11.00;76.70
61374;DHT22;47242;48.158;-1.586;2023-03-25T07:16:25;11.20;76.40
61374;DHT22;47242;48.158;-1.586;2023-03-25T07:18:51;11.30;76.10
61374;DHT22;47242;48.158;-1.586;2023-03-25T07:21:17;11.30;75.70
61374;DHT22;47242;48.158;-1.586;2023-03-25T07:23:43;11.50;75.60
61374;DHT22;47242;48.158;-1.586;2023-03-25T07:26:09;11.50;75.30
61374;DHT22;47242;48.158;-1.586;2023-03-25T07:28:34;11.50;75.10
61374;DHT22;47242;48.158;-1.586;2023-03-25T07:31:05;11.60;75.00
61374;DHT22;47242;48.158;-1.586;2023-03-25T07:33:31;11.70;74.80
61374;DHT22;47242;48.158;-1.586;2023-03-25T07:35:57;11.70;74.50
61374;DHT22;47242;48.158;-1.586;2023-03-25T07:38:22;11.80;74.30
61374;DHT22;47242;48.158;-1.586;2023-03-25T07:40:48;11.80;74.20
61374;DHT22;47242;48.158;-1.586;2023-03-25T07:43:14;11.80;74.00
61374;DHT22;47242;48.158;-1.586;2023-03-25T07:45:39;11.90;73.80
61374;DHT22;47242;48.158;-1.586;2023-03-25T07:48:05;11.90;73.60
61374;DHT22;47242;48.158;-1.586;2023-03-25T07:50:37;11.90;73.50
61374;DHT22;47242;48.158;-1.586;2023-03-25T07:53:03;11.90;73.60
61374;DHT22;47242;48.158;-1.586;2023-03-25T07:55:29;11.90;73.50
61374;DHT22;47242;48.158;-1.586;2023-03-25T07:57:55;11.90;73.40
61374;DHT22;47242;48.158;-1.586;2023-03-25T08:00:22;11.90;73.30
61374;DHT22;47242;48.158;-1.586;2023-03-25T08:02:48;11.90;73.30
61374;DHT22;47242;48.158;-1.586;2023-03-25T08:05:14;12.00;73.20
61374;DHT22;47242;48.158;-1.586;2023-03-25T08:07:49;12.00;73.20
61374;DHT22;47242;48.158;-1.586;2023-03-25T08:10:15;12.00;73.10
61374;DHT22;47242;48.158;-1.586;2023-03-25T08:12:42;12.00;73.00
61374;DHT22;47242;48.158;-1.586;2023-03-25T08:15:09;12.00;72.90
61374;DHT22;47242;48.158;-1.586;2023-03-25T08:17:38;12.00;72.70
61374;DHT22;47242;48.158;-1.586;2023-03-25T08:20:05;12.00;72.80
61374;DHT22;47242;48.158;-1.586;2023-03-25T08:22:32;12.00;72.80
61374;DHT22;47242;48.158;-1.586;2023-03-25T08:24:58;12.00;73.20
61374;DHT22;47242;48.158;-1.586;2023-03-25T08:27:24;12.00;73.30
61374;DHT22;47242;48.158;-1.586;2023-03-25T08:29:50;12.00;73.40
61374;DHT22;47242;48.158;-1.586;2023-03-25T08:32:25;12.10;73.10
61374;DHT22;47242;48.158;-1.586;2023-03-25T08:34:52;12.10;72.80
61374;DHT22;47242;48.158;-1.586;2023-03-25T08:37:19;12.20;73.30
61374;DHT22;47242;48.158;-1.586;2023-03-25T08:39:46;12.10;73.00
61374;DHT22;47242;48.158;-1.586;2023-03-25T08:42:16;12.10;73.10
61374;DHT22;47242;48.158;-1.586;2023-03-25T08:44:42;12.10;73.20
61374;DHT22;47242;48.158;-1.586;2023-03-25T08:47:08;12.20;73.70
61374;DHT22;47242;48.158;-1.586;2023-03-25T08:49:33;12.20;73.60
61374;DHT22;47242;48.158;-1.586;2023-03-25T08:51:59;12.20;73.80
61374;DHT22;47242;48.158;-1.586;2023-03-25T08:54:27;12.30;73.60
61374;DHT22;47242;48.158;-1.586;2023-03-25T08:56:53;12.30;73.60
61374;DHT22;47242;48.158;-1.586;2023-03-25T08:59:19;12.30;73.70
61374;DHT22;47242;48.158;-1.586;2023-03-25T09:01:46;12.30;73.70
61374;DHT22;47242;48.158;-1.586;2023-03-25T09:04:12;12.30;73.60
61374;DHT22;47242;48.158;-1.586;2023-03-25T09:06:38;12.40;73.80
61374;DHT22;47242;48.158;-1.586;2023-03-25T09:09:05;12.50;73.40
61374;DHT22;47242;48.158;-1.586;2023-03-25T09:11:32;12.60;73.30
61374;DHT22;47242;48.158;-1.586;2023-03-25T09:13:58;12.60;73.40
61374;DHT22;47242;48.158;-1.586;2023-03-25T09:16:23;12.70;73.50
61374;DHT22;47242;48.158;-1.586;2023-03-25T09:18:49;12.80;73.20
61374;DHT22;47242;48.158;-1.586;2023-03-25T09:21:15;12.80;73.40
61374;DHT22;47242;48.158;-1.586;2023-03-25T09:23:40;12.90;73.10
61374;DHT22;47242;48.158;-1.586;2023-03-25T09:26:06;13.00;72.80
61374;DHT22;47242;48.158;-1.586;2023-03-25T09:28:32;13.10;72.70
61374;DHT22;47242;48.158;-1.586;2023-03-25T09:30:57;13.10;73.00
61374;DHT22;47242;48.158;-1.586;2023-03-25T09:33:23;13.10;72.50
61374;DHT22;47242;48.158;-1.586;2023-03-25T09:35:49;13.10;72.30
61374;DHT22;47242;48.158;-1.586;2023-03-25T09:38:15;13.20;72.80
61374;DHT22;47242;48.158;-1.586;2023-03-25T09:40:44;13.20;72.40
61374;DHT22;47242;48.158;-1.586;2023-03-25T09:43:16;13.20;72.30
61374;DHT22;47242;48.158;-1.586;2023-03-25T09:45:47;13.30;72.60
61374;DHT22;47242;48.158;-1.586;2023-03-25T09:50:46;13.50;72.00
61374;DHT22;47242;48.158;-1.586;2023-03-25T09:55:52;13.60;71.40
61374;DHT22;47242;48.158;-1.586;2023-03-25T10:01:13;13.80;71.20
61374;DHT22;47242;48.158;-1.586;2023-03-25T10:06:30;13.80;70.40
61374;DHT22;47242;48.158;-1.586;2023-03-25T10:14:47;13.90;70.00
61374;DHT22;47242;48.158;-1.586;2023-03-25T10:17:43;14.10;70.30
61374;DHT22;47242;48.158;-1.586;2023-03-25T10:23:07;14.30;69.40
61374;DHT22;47242;48.158;-1.586;2023-03-25T10:25:37;14.30;68.10
61374;DHT22;47242;48.158;-1.586;2023-03-25T10:28:04;14.30;67.80
61374;DHT22;47242;48.158;-1.586;2023-03-25T10:30:35;14.30;67.60
61374;DHT22;47242;48.158;-1.586;2023-03-25T10:33:11;14.30;66.80
61374;DHT22;47242;48.158;-1.586;2023-03-25T10:35:43;14.40;67.10
61374;DHT22;47242;48.158;-1.586;2023-03-25T10:38:21;14.50;67.30
61374;DHT22;47242;48.158;-1.586;2023-03-25T10:41:13;14.50;66.70
61374;DHT22;47242;48.158;-1.586;2023-03-25T10:43:42;14.50;66.40
61374;DHT22;47242;48.158;-1.586;2023-03-25T10:48:42;14.60;66.60
61374;DHT22;47242;48.158;-1.586;2023-03-25T10:51:11;14.70;66.60
61374;DHT22;47242;48.158;-1.586;2023-03-25T10:53:39;14.80;66.40
61374;DHT22;47242;48.158;-1.586;2023-03-25T10:56:13;14.80;66.30
61374;DHT22;47242;48.158;-1.586;2023-03-25T10:58:41;14.90;65.10
61374;DHT22;47242;48.158;-1.586;2023-03-25T11:01:13;15.00;65.00
61374;DHT22;47242;48.158;-1.586;2023-03-25T11:03:40;15.00;64.20
61374;DHT22;47242;48.158;-1.586;2023-03-25T11:06:25;15.00;63.80
61374;DHT22;47242;48.158;-1.586;2023-03-25T11:09:14;15.00;63.10
61374;DHT22;47242;48.158;-1.586;2023-03-25T11:11:42;15.10;63.70
61374;DHT22;47242;48.158;-1.586;2023-03-25T11:14:10;15.00;63.60
61374;DHT22;47242;48.158;-1.586;2023-03-25T11:16:47;15.00;63.90
61374;DHT22;47242;48.158;-1.586;2023-03-25T11:19:24;15.00;64.40
61374;DHT22;47242;48.158;-1.586;2023-03-25T11:22:00;15.10;65.00
61374;DHT22;47242;48.158;-1.586;2023-03-25T11:24:31;15.10;64.00
61374;DHT22;47242;48.158;-1.586;2023-03-25T11:26:57;15.10;63.50
61374;DHT22;47242;48.158;-1.586;2023-03-25T11:29:25;15.00;63.60
61374;DHT22;47242;48.158;-1.586;2023-03-25T11:34:30;15.00;63.60
61374;DHT22;47242;48.158;-1.586;2023-03-25T11:37:02;15.00;62.50
61374;DHT22;47242;48.158;-1.586;2023-03-25T11:39:38;14.80;62.90
61374;DHT22;47242;48.158;-1.586;2023-03-25T11:44:55;14.90;63.00
61374;DHT22;47242;48.158;-1.586;2023-03-25T11:47:37;14.90;62.70
61374;DHT22;47242;48.158;-1.586;2023-03-25T11:50:04;15.00;62.30
61374;DHT22;47242;48.158;-1.586;2023-03-25T11:52:44;15.10;62.60
61374;DHT22;47242;48.158;-1.586;2023-03-25T11:55:34;15.20;62.30
61374;DHT22;47242;48.158;-1.586;2023-03-25T11:58:01;15.30;62.20
61374;DHT22;47242;48.158;-1.586;2023-03-25T12:00:39;15.50;62.50
61374;DHT22;47242;48.158;-1.586;2023-03-25T12:03:14;15.70;62.20
61374;DHT22;47242;48.158;-1.586;2023-03-25T12:05:42;15.80;62.20
61374;DHT22;47242;48.158;-1.586;2023-03-25T12:08:20;15.80;60.50
61374;DHT22;47242;48.158;-1.586;2023-03-25T12:11:05;15.80;61.10
61374;DHT22;47242;48.158;-1.586;2023-03-25T12:24:36;15.70;61.30
61374;DHT22;47242;48.158;-1.586;2023-03-25T12:32:42;15.80;60.60
61374;DHT22;47242;48.158;-1.586;2023-03-25T12:40:49;15.50;62.90
61374;DHT22;47242;48.158;-1.586;2023-03-25T12:43:32;15.40;63.40
61374;DHT22;47242;48.158;-1.586;2023-03-25T12:51:15;15.20;66.30
61374;DHT22;47242;48.158;-1.586;2023-03-25T12:56:53;15.50;67.20
61374;DHT22;47242;48.158;-1.586;2023-03-25T13:05:10;16.20;64.80
61374;DHT22;47242;48.158;-1.586;2023-03-25T13:10:36;16.30;63.10
61374;DHT22;47242;48.158;-1.586;2023-03-25T13:13:19;16.40;62.60
61374;DHT22;47242;48.158;-1.586;2023-03-25T13:16:07;16.50;63.00
61374;DHT22;47242;48.158;-1.586;2023-03-25T13:18:41;16.20;62.60
61374;DHT22;47242;48.158;-1.586;2023-03-25T13:21:19;16.30;62.60
61374;DHT22;47242;48.158;-1.586;2023-03-25T13:24:00;16.30;62.90
61374;DHT22;47242;48.158;-1.586;2023-03-25T13:26:28;16.30;62.30
61374;DHT22;47242;48.158;-1.586;2023-03-25T13:29:01;16.30;62.20
61374;DHT22;47242;48.158;-1.586;2023-03-25T13:31:32;16.40;62.60
61374;DHT22;47242;48.158;-1.586;2023-03-25T13:34:05;16.50;62.80
61374;DHT22;47242;48.158;-1.586;2023-03-25T13:37:22;16.50;63.20
61374;DHT22;47242;48.158;-1.586;2023-03-25T13:39:32;16.40;62.30
61374;DHT22;47242;48.158;-1.586;2023-03-25T13:42:06;16.40;61.80
61374;DHT22;47242;48.158;-1.586;2023-03-25T13:44:38;16.50;61.70
61374;DHT22;47242;48.158;-1.586;2023-03-25T13:47:22;16.60;61.10
61374;DHT22;47242;48.158;-1.586;2023-03-25T13:49:50;16.50;59.50
61374;DHT22;47242;48.158;-1.586;2023-03-25T13:52:18;16.40;58.80
61374;DHT22;47242;48.158;-1.586;2023-03-25T13:55:00;16.30;59.60
61374;DHT22;47242;48.158;-1.586;2023-03-25T14:10:52;16.50;56.20
61374;DHT22;47242;48.158;-1.586;2023-03-25T14:13:31;16.60;56.90
61374;DHT22;47242;48.158;-1.586;2023-03-25T14:16:02;16.60;56.60
61374;DHT22;47242;48.158;-1.586;2023-03-25T14:18:29;16.60;56.50
61374;DHT22;47242;48.158;-1.586;2023-03-25T14:21:45;16.70;56.60
61374;DHT22;47242;48.158;-1.586;2023-03-25T14:23:43;16.70;55.00
61374;DHT22;47242;48.158;-1.586;2023-03-25T14:26:09;16.80;54.90
61374;DHT22;47242;48.158;-1.586;2023-03-25T14:28:40;16.80;54.00
61374;DHT22;47242;48.158;-1.586;2023-03-25T14:44:39;16.80;53.60
61374;DHT22;47242;48.158;-1.586;2023-03-25T14:50:00;16.70;52.60
61374;DHT22;47242;48.158;-1.586;2023-03-25T14:52:42;16.70;52.40
61374;DHT22;47242;48.158;-1.586;2023-03-25T14:55:16;16.70;52.30
61374;DHT22;47242;48.158;-1.586;2023-03-25T14:57:42;16.70;52.70
61374;DHT22;47242;48.158;-1.586;2023-03-25T15:00:17;16.60;52.50
61374;DHT22;47242;48.158;-1.586;2023-03-25T15:02:50;16.50;53.40
61374;DHT22;47242;48.158;-1.586;2023-03-25T15:05:24;16.50;53.50
61374;DHT22;47242;48.158;-1.586;2023-03-25T15:08:14;16.40;54.10
61374;DHT22;47242;48.158;-1.586;2023-03-25T15:10:49;16.40;54.20
61374;DHT22;47242;48.158;-1.586;2023-03-25T15:13:26;16.30;54.80
61374;DHT22;47242;48.158;-1.586;2023-03-25T15:16:05;16.30;54.00
61374;DHT22;47242;48.158;-1.586;2023-03-25T15:18:56;16.30;54.50
61374;DHT22;47242;48.158;-1.586;2023-03-25T15:21:23;16.30;53.80
61374;DHT22;47242;48.158;-1.586;2023-03-25T15:23:59;16.30;54.00
61374;DHT22;47242;48.158;-1.586;2023-03-25T15:26:41;16.20;53.30
61374;DHT22;47242;48.158;-1.586;2023-03-25T15:32:02;16.10;53.70
61374;DHT22;47242;48.158;-1.586;2023-03-25T15:51:09;15.90;52.60
61374;DHT22;47242;48.158;-1.586;2023-03-25T15:56:44;15.90;53.10
61374;DHT22;47242;48.158;-1.586;2023-03-25T15:59:24;15.80;53.80
61374;DHT22;47242;48.158;-1.586;2023-03-25T16:01:55;15.80;55.30
61374;DHT22;47242;48.158;-1.586;2023-03-25T16:04:39;15.90;55.10
61374;DHT22;47242;48.158;-1.586;2023-03-25T16:07:10;15.80;55.10
61374;DHT22;47242;48.158;-1.586;2023-03-25T16:09:45;15.80;55.40
61374;DHT22;47242;48.158;-1.586;2023-03-25T16:12:16;15.70;56.20
61374;DHT22;47242;48.158;-1.586;2023-03-25T16:14:43;15.70;56.20
61374;DHT22;47242;48.158;-1.586;2023-03-25T16:17:12;15.70;56.70
61374;DHT22;47242;48.158;-1.586;2023-03-25T16:19:41;15.80;57.20
61374;DHT22;47242;48.158;-1.586;2023-03-25T16:22:29;15.90;57.40
61374;DHT22;47242;48.158;-1.586;2023-03-25T16:25:03;15.90;56.50
61374;DHT22;47242;48.158;-1.586;2023-03-25T16:27:33;15.80;56.20
61374;DHT22;47242;48.158;-1.586;2023-03-25T16:30:00;15.80;56.40
61374;DHT22;47242;48.158;-1.586;2023-03-25T16:32:31;15.60;56.20
61374;DHT22;47242;48.158;-1.586;2023-03-25T16:34:58;15.30;56.50
61374;DHT22;47242;48.158;-1.586;2023-03-25T16:37:24;15.20;57.00
61374;DHT22;47242;48.158;-1.586;2023-03-25T16:39:55;15.20;57.80
61374;DHT22;47242;48.158;-1.586;2023-03-25T16:42:30;15.20;58.10
61374;DHT22;47242;48.158;-1.586;2023-03-25T16:45:01;15.20;58.50
61374;DHT22;47242;48.158;-1.586;2023-03-25T16:47:27;15.30;58.10
61374;DHT22;47242;48.158;-1.586;2023-03-25T16:49:56;15.20;56.70
61374;DHT22;47242;48.158;-1.586;2023-03-25T16:52:27;15.10;55.50
61374;DHT22;47242;48.158;-1.586;2023-03-25T16:57:31;15.00;56.10
61374;DHT22;47242;48.158;-1.586;2023-03-25T17:00:17;14.80;56.70
61374;DHT22;47242;48.158;-1.586;2023-03-25T17:02:45;14.80;57.90
61374;DHT22;47242;48.158;-1.586;2023-03-25T17:05:14;14.80;57.30
61374;DHT22;47242;48.158;-1.586;2023-03-25T17:08:00;14.70;58.10
61374;DHT22;47242;48.158;-1.586;2023-03-25T17:10:49;14.80;57.90
61374;DHT22;47242;48.158;-1.586;2023-03-25T17:13:22;14.70;59.10
61374;DHT22;47242;48.158;-1.586;2023-03-25T17:15:49;14.80;59.10
61374;DHT22;47242;48.158;-1.586;2023-03-25T17:18:17;14.80;59.70
61374;DHT22;47242;48.158;-1.586;2023-03-25T17:20:45;14.70;59.90
61374;DHT22;47242;48.158;-1.586;2023-03-25T17:23:20;14.80;60.30
61374;DHT22;47242;48.158;-1.586;2023-03-25T17:25:52;14.70;60.20
61374;DHT22;47242;48.158;-1.586;2023-03-25T17:34:07;14.60;60.80
61374;DHT22;47242;48.158;-1.586;2023-03-25T17:36:41;14.60;61.10
61374;DHT22;47242;48.158;-1.586;2023-03-25T17:39:19;14.60;61.90
61374;DHT22;47242;48.158;-1.586;2023-03-25T17:41:46;14.50;62.60
61374;DHT22;47242;48.158;-1.586;2023-03-25T17:44:14;14.50;63.20
61374;DHT22;47242;48.158;-1.586;2023-03-25T17:46:41;14.40;63.70
61374;DHT22;47242;48.158;-1.586;2023-03-25T17:49:15;14.30;63.70
61374;DHT22;47242;48.158;-1.586;2023-03-25T17:51:42;14.30;63.80
61374;DHT22;47242;48.158;-1.586;2023-03-25T17:54:08;14.20;64.20
61374;DHT22;47242;48.158;-1.586;2023-03-25T17:56:33;14.10;64.50
61374;DHT22;47242;48.158;-1.586;2023-03-25T17:59:17;14.20;64.50
61374;DHT22;47242;48.158;-1.586;2023-03-25T18:01:44;14.10;64.30
61374;DHT22;47242;48.158;-1.586;2023-03-25T18:04:12;14.00;64.10
61374;DHT22;47242;48.158;-1.586;2023-03-25T18:06:39;13.90;63.90
61374;DHT22;47242;48.158;-1.586;2023-03-25T18:09:17;13.80;64.10
61374;DHT22;47242;48.158;-1.586;2023-03-25T18:11:48;13.80;64.60
61374;DHT22;47242;48.158;-1.586;2023-03-25T18:14:14;13.70;64.70
61374;DHT22;47242;48.158;-1.586;2023-03-25T18:16:39;13.70;65.20
61374;DHT22;47242;48.158;-1.586;2023-03-25T18:19:16;13.60;65.50
61374;DHT22;47242;48.158;-1.586;2023-03-25T18:21:42;13.70;66.00
61374;DHT22;47242;48.158;-1.586;2023-03-25T18:24:08;13.60;66.20
61374;DHT22;47242;48.158;-1.586;2023-03-25T18:26:34;13.60;67.00
61374;DHT22;47242;48.158;-1.586;2023-03-25T18:29:00;13.60;67.80
61374;DHT22;47242;48.158;-1.586;2023-03-25T18:31:27;13.50;68.60
61374;DHT22;47242;48.158;-1.586;2023-03-25T18:33:53;13.30;69.20
61374;DHT22;47242;48.158;-1.586;2023-03-25T18:36:20;13.30;69.30
61374;DHT22;47242;48.158;-1.586;2023-03-25T18:38:46;13.20;69.60
61374;DHT22;47242;48.158;-1.586;2023-03-25T18:41:12;13.20;70.10
61374;DHT22;47242;48.158;-1.586;2023-03-25T18:43:41;13.10;70.60
61374;DHT22;47242;48.158;-1.586;2023-03-25T18:46:11;13.10;70.80
61374;DHT22;47242;48.158;-1.586;2023-03-25T18:48:38;13.10;71.00
61374;DHT22;47242;48.158;-1.586;2023-03-25T18:51:04;13.10;71.20
61374;DHT22;47242;48.158;-1.586;2023-03-25T18:53:30;13.00;70.90
61374;DHT22;47242;48.158;-1.586;2023-03-25T18:55:57;13.00;71.30
61374;DHT22;47242;48.158;-1.586;2023-03-25T18:58:29;13.00;71.40
61374;DHT22;47242;48.158;-1.586;2023-03-25T19:00:55;12.90;71.70
61374;DHT22;47242;48.158;-1.586;2023-03-25T19:03:22;12.80;72.20
61374;DHT22;47242;48.158;-1.586;2023-03-25T19:05:55;12.80;72.80
61374;DHT22;47242;48.158;-1.586;2023-03-25T19:08:21;12.80;73.50
61374;DHT22;47242;48.158;-1.586;2023-03-25T19:10:47;12.70;74.00
61374;DHT22;47242;48.158;-1.586;2023-03-25T19:13:13;12.70;73.80
61374;DHT22;47242;48.158;-1.586;2023-03-25T19:15:40;12.70;74.20
61374;DHT22;47242;48.158;-1.586;2023-03-25T19:18:11;12.70;74.30
61374;DHT22;47242;48.158;-1.586;2023-03-25T19:20:38;12.50;74.40
61374;DHT22;47242;48.158;-1.586;2023-03-25T19:23:05;12.50;74.20
61374;DHT22;47242;48.158;-1.586;2023-03-25T19:25:31;12.40;74.00
61374;DHT22;47242;48.158;-1.586;2023-03-25T19:27:57;12.30;74.60
61374;DHT22;47242;48.158;-1.586;2023-03-25T19:30:23;12.20;74.70
61374;DHT22;47242;48.158;-1.586;2023-03-25T19:32:51;12.30;75.10
61374;DHT22;47242;48.158;-1.586;2023-03-25T19:35:19;12.30;74.80
61374;DHT22;47242;48.158;-1.586;2023-03-25T19:37:46;12.20;75.10
61374;DHT22;47242;48.158;-1.586;2023-03-25T19:40:17;12.30;75.00
61374;DHT22;47242;48.158;-1.586;2023-03-25T19:42:44;12.20;75.20
61374;DHT22;47242;48.158;-1.586;2023-03-25T19:45:11;12.30;75.40
61374;DHT22;47242;48.158;-1.586;2023-03-25T19:47:38;12.30;75.60
61374;DHT22;47242;48.158;-1.586;2023-03-25T19:50:13;12.20;75.90
61374;DHT22;47242;48.158;-1.586;2023-03-25T19:52:39;12.20;76.20
61374;DHT22;47242;48.158;-1.586;2023-03-25T19:55:06;11.90;76.60
61374;DHT22;47242;48.158;-1.586;2023-03-25T19:57:32;12.00;77.30
61374;DHT22;47242;48.158;-1.586;2023-03-25T19:59:58;12.00;77.40
61374;DHT22;47242;48.158;-1.586;2023-03-25T20:02:26;11.90;77.70
61374;DHT22;47242;48.158;-1.586;2023-03-25T20:04:52;11.90;77.90
61374;DHT22;47242;48.158;-1.586;2023-03-25T20:07:18;11.80;78.30
61374;DHT22;47242;48.158;-1.586;2023-03-25T20:09:46;11.80;78.50
61374;DHT22;47242;48.158;-1.586;2023-03-25T20:12:12;11.80;78.50
61374;DHT22;47242;48.158;-1.586;2023-03-25T20:14:38;11.80;79.00
61374;DHT22;47242;48.158;-1.586;2023-03-25T20:17:03;11.80;79.10
61374;DHT22;47242;48.158;-1.586;2023-03-25T20:19:29;11.80;79.10
61374;DHT22;47242;48.158;-1.586;2023-03-25T20:21:55;11.70;79.50
61374;DHT22;47242;48.158;-1.586;2023-03-25T20:24:21;11.70;79.60
61374;DHT22;47242;48.158;-1.586;2023-03-25T20:26:46;11.70;79.80
61374;DHT22;47242;48.158;-1.586;2023-03-25T20:29:12;11.60;79.70
61374;DHT22;47242;48.158;-1.586;2023-03-25T20:31:38;11.50;80.10
61374;DHT22;47242;48.158;-1.586;2023-03-25T20:34:03;11.40;79.60
61374;DHT22;47242;48.158;-1.586;2023-03-25T20:36:30;11.30;79.70
61374;DHT22;47242;48.158;-1.586;2023-03-25T20:38:56;11.30;79.70
61374;DHT22;47242;48.158;-1.586;2023-03-25T20:41:23;11.20;79.60
61374;DHT22;47242;48.158;-1.586;2023-03-25T20:43:49;11.30;79.70
61374;DHT22;47242;48.158;-1.586;2023-03-25T20:46:15;11.20;79.80
61374;DHT22;47242;48.158;-1.586;2023-03-25T20:48:41;11.20;79.70
61374;DHT22;47242;48.158;-1.586;2023-03-25T20:51:08;11.30;79.60
61374;DHT22;47242;48.158;-1.586;2023-03-25T20:53:36;11.20;78.70
61374;DHT22;47242;48.158;-1.586;2023-03-25T20:56:02;11.10;79.40
61374;DHT22;47242;48.158;-1.586;2023-03-25T20:58:29;11.20;79.70
61374;DHT22;47242;48.158;-1.586;2023-03-25T21:00:55;11.20;79.70
61374;DHT22;47242;48.158;-1.586;2023-03-25T21:03:26;11.20;79.60
61374;DHT22;47242;48.158;-1.586;2023-03-25T21:05:58;11.20;79.80
61374;DHT22;47242;48.158;-1.586;2023-03-25T21:08:28;11.10;80.10
61374;DHT22;47242;48.158;-1.586;2023-03-25T21:10:56;10.90;79.80
61374;DHT22;47242;48.158;-1.586;2023-03-25T21:13:23;10.90;80.00
61374;DHT22;47242;48.158;-1.586;2023-03-25T21:15:54;10.90;80.10
61374;DHT22;47242;48.158;-1.586;2023-03-25T21:18:21;10.80;80.10
61374;DHT22;47242;48.158;-1.586;2023-03-25T21:20:52;10.90;80.20
61374;DHT22;47242;48.158;-1.586;2023-03-25T21:23:18;10.90;80.10
61374;DHT22;47242;48.158;-1.586;2023-03-25T21:25:45;10.90;80.10
61374;DHT22;47242;48.158;-1.586;2023-03-25T21:28:14;10.90;80.40
61374;DHT22;47242;48.158;-1.586;2023-03-25T21:30:39;10.80;80.80
61374;DHT22;47242;48.158;-1.586;2023-03-25T21:33:05;10.80;80.70
61374;DHT22;47242;48.158;-1.586;2023-03-25T21:35:33;10.80;80.80
61374;DHT22;47242;48.158;-1.586;2023-03-25T21:37:59;10.90;80.70
61374;DHT22;47242;48.158;-1.586;2023-03-25T21:40:32;10.80;80.90
61374;DHT22;47242;48.158;-1.586;2023-03-25T21:42:58;10.70;81.20
61374;DHT22;47242;48.158;-1.586;2023-03-25T21:45:24;10.80;81.70
61374;DHT22;47242;48.158;-1.586;2023-03-25T21:47:50;10.70;81.90
61374;DHT22;47242;48.158;-1.586;2023-03-25T21:50:20;10.70;81.80
61374;DHT22;47242;48.158;-1.586;2023-03-25T21:52:46;10.50;82.50
61374;DHT22;47242;48.158;-1.586;2023-03-25T21:55:14;10.60;82.70
61374;DHT22;47242;48.158;-1.586;2023-03-25T21:57:41;10.50;83.00
61374;DHT22;47242;48.158;-1.586;2023-03-25T22:00:11;10.50;82.50
61374;DHT22;47242;48.158;-1.586;2023-03-25T22:02:40;10.50;82.20
61374;DHT22;47242;48.158;-1.586;2023-03-25T22:05:11;10.50;82.90
61374;DHT22;47242;48.158;-1.586;2023-03-25T22:07:38;10.50;82.50
61374;DHT22;47242;48.158;-1.586;2023-03-25T22:10:05;10.30;82.90
61374;DHT22;47242;48.158;-1.586;2023-03-25T22:12:31;10.30;82.70
61374;DHT22;47242;48.158;-1.586;2023-03-25T22:14:57;10.30;83.10
61374;DHT22;47242;48.158;-1.586;2023-03-25T22:17:23;10.50;83.10
61374;DHT22;47242;48.158;-1.586;2023-03-25T22:19:48;10.40;82.80
61374;DHT22;47242;48.158;-1.586;2023-03-25T22:22:15;10.40;82.80
61374;DHT22;47242;48.158;-1.586;2023-03-25T22:24:44;10.30;82.40
61374;DHT22;47242;48.158;-1.586;2023-03-25T22:27:11;10.30;83.20
61374;DHT22;47242;48.158;-1.586;2023-03-25T22:29:37;10.30;83.10
